sensor_id;sensor_type;location;lat;lon;timestamp;pressure;altitude;pressure_sealevel;temperature;humidity
64200;BME280;50516;52.272;5.136;2024-03-02T00:00:19;99703.03;;;9.25;80.07
64200;BME280;50516;52.272;5.136;2024-03-02T00:02:48;99696.91;;;9.34;80.39
64200;BME280;50516;52.272;5.136;2024-03-02T00:05:18;99696.94;;;9.28;80.61
64200;BME280;50516;52.272;5.136;2024-03-02T00:07:45;99710.69;;;9.23;80.89
64200;BME280;50516;52.272;5.136;2024-03-02T00:10:16;99706.88;;;9.24;81.19
64200;BME280;50516;52.272;5.136;2024-03-02T00:12:42;99716.25;;;9.18;81.70
64200;BME280;50516;52.272;5.136;2024-03-02T00:18:03;99747.22;;;9.13;82.34
64200;BME280;50516;52.272;5.136;2024-03-02T00:20:30;99753.47;;;9.19;81.72
64200;BME280;50516;52.272;5.136;2024-03-02T00:23:04;99768.97;;;9.05;82.90
64200;BME280;50516;52.272;5.136;2024-03-02T00:25:39;99793.38;;;8.96;83.44
64200;BME280;50516;52.272;5.136;2024-03-02T00:28:23;99804.72;;;8.84;85.09
64200;BME280;50516;52.272;5.136;2024-03-02T00:33:26;99810.47;;;8.48;90.08
64200;BME280;50516;52.272;5.136;2024-03-02T00:35:53;99794.34;;;8.41;90.77
64200;BME280;50516;52.272;5.136;2024-03-02T00:38:18;99793.44;;;8.56;91.50
64200;BME280;50516;52.272;5.136;2024-03-02T00:40:44;99792.03;;;8.64;91.01
64200;BME280;50516;52.272;5.136;2024-03-02T00:43:45;99810.34;;;8.69;91.20
64200;BME280;50516;52.272;5.136;2024-03-02T00:46:13;99816.97;;;8.57;92.72
64200;BME280;50516;52.272;5.136;2024-03-02T00:48:50;99809.88;;;8.56;93.25
64200;BME280;50516;52.272;5.136;2024-03-02T00:51:17;99816.22;;;8.47;94.58
64200;BME280;50516;52.272;5.136;2024-03-02T00:53:43;99808.81;;;8.47;95.00
64200;BME280;50516;52.272;5.136;2024-03-02T00:56:10;99809.91;;;8.51;95.74
64200;BME280;50516;52.272;5.136;2024-03-02T00:58:36;99811.56;;;8.42;96.25
64200;BME280;50516;52.272;5.136;2024-03-02T01:01:01;99813.44;;;8.52;96.21
64200;BME280;50516;52.272;5.136;2024-03-02T01:03:26;99829.13;;;8.31;97.09
64200;BME280;50516;52.272;5.136;2024-03-02T01:05:52;99829.00;;;8.01;99.59
64200;BME280;50516;52.272;5.136;2024-03-02T01:08:17;99818.53;;;8.14;99.93
64200;BME280;50516;52.272;5.136;2024-03-02T01:10:43;99826.75;;;8.19;99.12
64200;BME280;50516;52.272;5.136;2024-03-02T01:13:08;99825.59;;;8.30;98.28
64200;BME280;50516;52.272;5.136;2024-03-02T01:15:34;99810.63;;;8.17;99.22
64200;BME280;50516;52.272;5.136;2024-03-02T01:17:59;99809.16;;;8.35;98.78
64200;BME280;50516;52.272;5.136;2024-03-02T01:20:25;99828.25;;;8.40;97.71
64200;BME280;50516;52.272;5.136;2024-03-02T01:22:50;99830.22;;;8.30;98.62
64200;BME280;50516;52.272;5.136;2024-03-02T01:25:16;99834.03;;;8.34;98.03
64200;BME280;50516;52.272;5.136;2024-03-02T01:27:41;99830.28;;;8.19;98.39
64200;BME280;50516;52.272;5.136;2024-03-02T01:30:07;99825.44;;;8.06;99.08
64200;BME280;50516;52.272;5.136;2024-03-02T01:32:32;99837.41;;;8.20;98.51
64200;BME280;50516;52.272;5.136;2024-03-02T01:34:57;99836.66;;;8.04;99.01
64200;BME280;50516;52.272;5.136;2024-03-02T01:37:23;99827.06;;;8.12;98.80
64200;BME280;50516;52.272;5.136;2024-03-02T01:39:48;99836.28;;;8.21;98.05
64200;BME280;50516;52.272;5.136;2024-03-02T01:42:14;99823.13;;;8.29;98.53
64200;BME280;50516;52.272;5.136;2024-03-02T01:44:40;99830.25;;;8.25;97.96
64200;BME280;50516;52.272;5.136;2024-03-02T01:47:05;99824.78;;;8.25;98.05
64200;BME280;50516;52.272;5.136;2024-03-02T01:49:30;99819.56;;;8.28;97.66
64200;BME280;50516;52.272;5.136;2024-03-02T01:51:58;99825.91;;;8.18;98.08
64200;BME280;50516;52.272;5.136;2024-03-02T01:54:23;99839.22;;;8.35;97.86
64200;BME280;50516;52.272;5.136;2024-03-02T01:56:48;99835.69;;;8.30;97.45
64200;BME280;50516;52.272;5.136;2024-03-02T01:59:13;99851.56;;;8.28;98.26
64200;BME280;50516;52.272;5.136;2024-03-02T02:01:39;99853.34;;;8.03;99.00
64200;BME280;50516;52.272;5.136;2024-03-02T02:04:04;99858.22;;;8.11;99.65
64200;BME280;50516;52.272;5.136;2024-03-02T02:06:31;99868.00;;;8.22;99.12
64200;BME280;50516;52.272;5.136;2024-03-02T02:08:57;99860.91;;;8.21;99.43
64200;BME280;50516;52.272;5.136;2024-03-02T02:11:22;99844.56;;;8.11;99.81
64200;BME280;50516;52.272;5.136;2024-03-02T02:13:47;99844.59;;;8.01;100.00
64200;BME280;50516;52.272;5.136;2024-03-02T02:16:13;99854.44;;;7.97;100.00
64200;BME280;50516;52.272;5.136;2024-03-02T02:18:38;99857.69;;;8.09;100.00
64200;BME280;50516;52.272;5.136;2024-03-02T02:21:04;99857.94;;;8.13;100.00
64200;BME280;50516;52.272;5.136;2024-03-02T02:23:29;99868.13;;;7.92;100.00
64200;BME280;50516;52.272;5.136;2024-03-02T02:25:54;99864.56;;;8.01;100.00
64200;BME280;50516;52.272;5.136;2024-03-02T02:28:20;99843.00;;;7.90;100.00
64200;BME280;50516;52.272;5.136;2024-03-02T02:30:45;99837.53;;;7.95;100.00
64200;BME280;50516;52.272;5.136;2024-03-02T02:33:11;99833.09;;;8.04;99.75
64200;BME280;50516;52.272;5.136;2024-03-02T02:35:36;99832.88;;;7.90;100.00
64200;BME280;50516;52.272;5.136;2024-03-02T02:38:02;99850.63;;;7.93;100.00
64200;BME280;50516;52.272;5.136;2024-03-02T02:40:28;99854.16;;;7.98;100.00
64200;BME280;50516;52.272;5.136;2024-03-02T02:42:56;99853.38;;;7.88;100.00
64200;BME280;50516;52.272;5.136;2024-03-02T02:45:21;99856.38;;;7.86;100.00
64200;BME280;50516;52.272;5.136;2024-03-02T02:47:46;99847.41;;;7.80;100.00
64200;BME280;50516;52.272;5.136;2024-03-02T02:50:12;99850.44;;;7.68;100.00
64200;BME280;50516;52.272;5.136;2024-03-02T02:52:39;99857.03;;;7.47;100.00
64200;BME280;50516;52.272;5.136;2024-03-02T02:55:07;99857.78;;;7.73;100.00
64200;BME280;50516;52.272;5.136;2024-03-02T02:57:34;99855.09;;;7.68;100.00
64200;BME280;50516;52.272;5.136;2024-03-02T03:00:09;99858.91;;;7.67;100.00
64200;BME280;50516;52.272;5.136;2024-03-02T03:02:38;99857.81;;;7.68;100.00
64200;BME280;50516;52.272;5.136;2024-03-02T03:05:08;99867.09;;;7.77;100.00
64200;BME280;50516;52.272;5.136;2024-03-02T03:07:33;99858.88;;;7.82;100.00
64200;BME280;50516;52.272;5.136;2024-03-02T03:10:03;99859.47;;;7.69;100.00
64200;BME280;50516;52.272;5.136;2024-03-02T03:12:29;99863.81;;;7.75;100.00
64200;BME280;50516;52.272;5.136;2024-03-02T03:14:55;99868.13;;;7.92;99.71
64200;BME280;50516;52.272;5.136;2024-03-02T03:17:23;99863.75;;;7.91;99.56
64200;BME280;50516;52.272;5.136;2024-03-02T03:19:50;99859.34;;;8.00;99.12
64200;BME280;50516;52.272;5.136;2024-03-02T03:22:15;99860.50;;;7.83;99.30
64200;BME280;50516;52.272;5.136;2024-03-02T03:24:41;99861.88;;;7.81;99.21
64200;BME280;50516;52.272;5.136;2024-03-02T03:27:06;99866.25;;;7.87;99.21
64200;BME280;50516;52.272;5.136;2024-03-02T03:29:31;99871.94;;;8.01;98.56
64200;BME280;50516;52.272;5.136;2024-03-02T03:31:57;99873.28;;;8.03;98.62
64200;BME280;50516;52.272;5.136;2024-03-02T03:34:22;99879.56;;;8.09;97.90
64200;BME280;50516;52.272;5.136;2024-03-02T03:36:47;99875.69;;;8.20;97.49
64200;BME280;50516;52.272;5.136;2024-03-02T03:39:12;99869.06;;;8.27;96.87
64200;BME280;50516;52.272;5.136;2024-03-02T03:41:38;99872.69;;;8.12;97.52
64200;BME280;50516;52.272;5.136;2024-03-02T03:44:03;99878.47;;;8.05;97.38
64200;BME280;50516;52.272;5.136;2024-03-02T03:46:29;99878.41;;;8.15;96.63
64200;BME280;50516;52.272;5.136;2024-03-02T03:48:54;99879.84;;;8.02;96.87
64200;BME280;50516;52.272;5.136;2024-03-02T03:51:21;99879.00;;;8.07;96.28
64200;BME280;50516;52.272;5.136;2024-03-02T03:53:47;99887.22;;;8.12;96.40
64200;BME280;50516;52.272;5.136;2024-03-02T03:56:13;99890.44;;;8.19;96.24
64200;BME280;50516;52.272;5.136;2024-03-02T03:58:38;99896.44;;;8.21;95.71
64200;BME280;50516;52.272;5.136;2024-03-02T04:01:03;99901.34;;;8.25;95.30
64200;BME280;50516;52.272;5.136;2024-03-02T04:03:29;99903.06;;;8.10;95.87
64200;BME280;50516;52.272;5.136;2024-03-02T04:05:55;99888.03;;;8.13;95.81
64200;BME280;50516;52.272;5.136;2024-03-02T04:08:20;99900.28;;;8.15;95.52
64200;BME280;50516;52.272;5.136;2024-03-02T04:10:46;99900.59;;;8.09;95.68
64200;BME280;50516;52.272;5.136;2024-03-02T04:13:11;99900.28;;;8.15;95.04
64200;BME280;50516;52.272;5.136;2024-03-02T04:15:37;99907.16;;;8.02;95.59
64200;BME280;50516;52.272;5.136;2024-03-02T04:18:02;99892.13;;;8.10;96.00
64200;BME280;50516;52.272;5.136;2024-03-02T04:20:27;99906.84;;;8.19;95.23
64200;BME280;50516;52.272;5.136;2024-03-02T04:22:53;99903.06;;;8.05;95.65
64200;BME280;50516;52.272;5.136;2024-03-02T04:25:18;99901.75;;;7.92;95.73
64200;BME280;50516;52.272;5.136;2024-03-02T04:27:45;99897.06;;;8.03;95.72
64200;BME280;50516;52.272;5.136;2024-03-02T04:30:10;99895.44;;;8.02;95.69
64200;BME280;50516;52.272;5.136;2024-03-02T04:32:36;99895.44;;;8.02;94.93
64200;BME280;50516;52.272;5.136;2024-03-02T04:35:01;99898.69;;;8.04;95.31
64200;BME280;50516;52.272;5.136;2024-03-02T04:37:27;99903.59;;;8.07;94.35
64200;BME280;50516;52.272;5.136;2024-03-02T04:39:52;99905.56;;;7.96;94.82
64200;BME280;50516;52.272;5.136;2024-03-02T04:42:17;99898.22;;;7.86;95.15
64200;BME280;50516;52.272;5.136;2024-03-02T04:44:43;99913.00;;;7.75;95.06
64200;BME280;50516;52.272;5.136;2024-03-02T04:47:08;99910.25;;;7.70;95.10
64200;BME280;50516;52.272;5.136;2024-03-02T04:49:33;99914.09;;;7.69;95.33
64200;BME280;50516;52.272;5.136;2024-03-02T04:51:58;99916.81;;;7.74;94.80
64200;BME280;50516;52.272;5.136;2024-03-02T04:54:24;99907.56;;;7.55;95.08
64200;BME280;50516;52.272;5.136;2024-03-02T04:56:49;99928.31;;;7.66;94.94
64200;BME280;50516;52.272;5.136;2024-03-02T04:59:18;99935.19;;;7.43;96.02
64200;BME280;50516;52.272;5.136;2024-03-02T05:01:44;99941.44;;;7.54;95.96
64200;BME280;50516;52.272;5.136;2024-03-02T05:04:10;99931.59;;;7.58;95.33
64200;BME280;50516;52.272;5.136;2024-03-02T05:06:39;99934.34;;;7.58;94.86
64200;BME280;50516;52.272;5.136;2024-03-02T05:09:10;99940.88;;;7.62;95.22
64200;BME280;50516;52.272;5.136;2024-03-02T05:11:35;99928.88;;;7.58;94.40
64200;BME280;50516;52.272;5.136;2024-03-02T05:14:04;99928.31;;;7.56;95.29
64200;BME280;50516;52.272;5.136;2024-03-02T05:16:33;99935.97;;;7.54;95.38
64200;BME280;50516;52.272;5.136;2024-03-02T05:18:59;99942.53;;;7.53;94.95
64200;BME280;50516;52.272;5.136;2024-03-02T05:21:24;99934.34;;;7.53;94.79
64200;BME280;50516;52.272;5.136;2024-03-02T05:23:50;99955.34;;;7.57;94.41
64200;BME280;50516;52.272;5.136;2024-03-02T05:26:15;99949.09;;;7.52;94.48
64200;BME280;50516;52.272;5.136;2024-03-02T05:28:40;99942.25;;;7.59;93.77
64200;BME280;50516;52.272;5.136;2024-03-02T05:31:06;99946.91;;;7.48;93.74
64200;BME280;50516;52.272;5.136;2024-03-02T05:33:31;99947.19;;;7.42;94.45
64200;BME280;50516;52.272;5.136;2024-03-02T05:35:58;99951.53;;;7.38;94.34
64200;BME280;50516;52.272;5.136;2024-03-02T05:38:23;99948.81;;;7.32;94.25
64200;BME280;50516;52.272;5.136;2024-03-02T05:40:49;99946.63;;;7.19;94.77
64200;BME280;50516;52.272;5.136;2024-03-02T05:43:14;99950.44;;;7.18;94.86
64200;BME280;50516;52.272;5.136;2024-03-02T05:45:39;99951.81;;;7.31;94.29
64200;BME280;50516;52.272;5.136;2024-03-02T05:48:06;99969.53;;;7.23;94.26
64200;BME280;50516;52.272;5.136;2024-03-02T05:50:32;99972.00;;;7.20;94.56
64200;BME280;50516;52.272;5.136;2024-03-02T05:52:58;99962.72;;;7.21;93.94
64200;BME280;50516;52.272;5.136;2024-03-02T05:55:24;99964.09;;;7.08;93.88
64200;BME280;50516;52.272;5.136;2024-03-02T05:57:49;99962.16;;;7.08;94.61
64200;BME280;50516;52.272;5.136;2024-03-02T06:00:27;99962.69;;;7.00;94.52
64200;BME280;50516;52.272;5.136;2024-03-02T06:02:52;99964.06;;;6.98;94.58
64200;BME280;50516;52.272;5.136;2024-03-02T06:05:18;99966.25;;;7.01;94.41
64200;BME280;50516;52.272;5.136;2024-03-02T06:07:44;99962.69;;;6.95;94.01
64200;BME280;50516;52.272;5.136;2024-03-02T06:10:09;99968.69;;;6.87;94.35
64200;BME280;50516;52.272;5.136;2024-03-02T06:12:34;99964.88;;;6.98;94.00
64200;BME280;50516;52.272;5.136;2024-03-02T06:15:00;99974.72;;;7.04;93.59
64200;BME280;50516;52.272;5.136;2024-03-02T06:17:25;99970.34;;;7.08;92.99
64200;BME280;50516;52.272;5.136;2024-03-02T06:19:50;99979.06;;;7.05;92.74
64200;BME280;50516;52.272;5.136;2024-03-02T06:22:16;99973.06;;;7.03;92.80
64200;BME280;50516;52.272;5.136;2024-03-02T06:24:41;99972.28;;;7.08;92.66
64200;BME280;50516;52.272;5.136;2024-03-02T06:27:07;99977.72;;;7.13;92.17
64200;BME280;50516;52.272;5.136;2024-03-02T06:29:33;99978.00;;;7.17;92.19
64200;BME280;50516;52.272;5.136;2024-03-02T06:31:59;99988.94;;;7.17;91.52
64200;BME280;50516;52.272;5.136;2024-03-02T06:34:24;99993.84;;;7.20;91.45
64200;BME280;50516;52.272;5.136;2024-03-02T06:36:49;99995.78;;;7.35;91.36
64200;BME280;50516;52.272;5.136;2024-03-02T06:39:14;99991.69;;;7.37;90.94
64200;BME280;50516;52.272;5.136;2024-03-02T06:41:40;99991.69;;;7.32;90.96
64200;BME280;50516;52.272;5.136;2024-03-02T06:44:05;99997.97;;;7.22;91.07
64200;BME280;50516;52.272;5.136;2024-03-02T06:46:31;100006.44;;;7.31;91.64
64200;BME280;50516;52.272;5.136;2024-03-02T06:48:57;100009.47;;;7.40;90.91
64200;BME280;50516;52.272;5.136;2024-03-02T06:51:22;100013.81;;;7.20;91.19
64200;BME280;50516;52.272;5.136;2024-03-02T06:53:48;100015.44;;;7.26;91.75
64200;BME280;50516;52.272;5.136;2024-03-02T06:56:13;100005.06;;;7.39;91.75
64200;BME280;50516;52.272;5.136;2024-03-02T06:58:38;100008.66;;;7.49;91.81
64200;BME280;50516;52.272;5.136;2024-03-02T07:01:04;100009.19;;;7.77;90.40
64200;BME280;50516;52.272;5.136;2024-03-02T07:03:30;99999.91;;;7.83;89.87
64200;BME280;50516;52.272;5.136;2024-03-02T07:05:55;100003.69;;;7.88;89.87
64200;BME280;50516;52.272;5.136;2024-03-02T07:08:20;100008.63;;;7.91;89.24
64200;BME280;50516;52.272;5.136;2024-03-02T07:10:45;99995.50;;;7.93;89.02
64200;BME280;50516;52.272;5.136;2024-03-02T07:13:12;100000.97;;;7.98;88.37
64200;BME280;50516;52.272;5.136;2024-03-02T07:15:38;100010.50;;;8.05;88.10
64200;BME280;50516;52.272;5.136;2024-03-02T07:18:12;100008.63;;;7.91;87.37
64200;BME280;50516;52.272;5.136;2024-03-02T07:20:37;100013.53;;;8.09;87.26
64200;BME280;50516;52.272;5.136;2024-03-02T07:23:04;100005.56;;;8.18;85.99
64200;BME280;50516;52.272;5.136;2024-03-02T07:25:29;100004.22;;;8.05;86.31
64200;BME280;50516;52.272;5.136;2024-03-02T07:27:55;100016.25;;;8.19;85.83
64200;BME280;50516;52.272;5.136;2024-03-02T07:30:20;100015.69;;;8.22;85.63
64200;BME280;50516;52.272;5.136;2024-03-02T07:32:46;100014.03;;;8.27;85.16
64200;BME280;50516;52.272;5.136;2024-03-02T07:35:14;100029.63;;;8.21;85.54
64200;BME280;50516;52.272;5.136;2024-03-02T07:37:43;100027.16;;;8.45;84.95
64200;BME280;50516;52.272;5.136;2024-03-02T07:40:09;100024.94;;;8.47;84.85
64200;BME280;50516;52.272;5.136;2024-03-02T07:42:39;100038.41;;;8.13;85.84
64200;BME280;50516;52.272;5.136;2024-03-02T07:45:05;100038.69;;;8.11;85.57
64200;BME280;50516;52.272;5.136;2024-03-02T07:47:31;100038.69;;;7.85;86.18
64200;BME280;50516;52.272;5.136;2024-03-02T07:49:56;100034.88;;;7.97;86.20
64200;BME280;50516;52.272;5.136;2024-03-02T07:52:22;100034.03;;;7.86;86.01
64200;BME280;50516;52.272;5.136;2024-03-02T07:54:47;100042.25;;;7.71;86.40
64200;BME280;50516;52.272;5.136;2024-03-02T07:57:13;100046.34;;;7.94;86.65
64200;BME280;50516;52.272;5.136;2024-03-02T07:59:38;100042.25;;;7.81;87.00
64200;BME280;50516;52.272;5.136;2024-03-02T08:02:03;100053.72;;;7.83;86.71
64200;BME280;50516;52.272;5.136;2024-03-02T08:04:30;100052.63;;;7.79;86.92
64200;BME280;50516;52.272;5.136;2024-03-02T08:06:55;100054.00;;;7.86;86.66
64200;BME280;50516;52.272;5.136;2024-03-02T08:09:21;100054.28;;;7.95;87.08
64200;BME280;50516;52.272;5.136;2024-03-02T08:11:46;100051.25;;;7.97;86.72
64200;BME280;50516;52.272;5.136;2024-03-02T08:14:11;100051.81;;;7.83;87.14
64200;BME280;50516;52.272;5.136;2024-03-02T08:16:37;100054.53;;;8.09;86.27
64200;BME280;50516;52.272;5.136;2024-03-02T08:19:02;100052.59;;;8.25;85.14
64200;BME280;50516;52.272;5.136;2024-03-02T08:21:28;100046.25;;;8.55;84.17
64200;BME280;50516;52.272;5.136;2024-03-02T08:23:56;100059.38;;;8.64;83.55
64200;BME280;50516;52.272;5.136;2024-03-02T08:26:22;100061.59;;;8.56;83.99
64200;BME280;50516;52.272;5.136;2024-03-02T08:28:47;100057.19;;;8.61;83.55
64200;BME280;50516;52.272;5.136;2024-03-02T08:31:13;100051.97;;;8.69;83.44
64200;BME280;50516;52.272;5.136;2024-03-02T08:33:38;100045.66;;;8.74;82.52
64200;BME280;50516;52.272;5.136;2024-03-02T08:36:04;100045.13;;;8.67;82.65
64200;BME280;50516;52.272;5.136;2024-03-02T08:38:30;100043.19;;;8.77;82.55
64200;BME280;50516;52.272;5.136;2024-03-02T08:40:55;100043.97;;;8.83;82.48
64200;BME280;50516;52.272;5.136;2024-03-02T08:43:21;100030.31;;;8.73;82.34
64200;BME280;50516;52.272;5.136;2024-03-02T08:45:48;100038.44;;;8.99;82.25
64200;BME280;50516;52.272;5.136;2024-03-02T08:48:13;100039.44;;;9.13;80.97
64200;BME280;50516;52.272;5.136;2024-03-02T08:50:38;100038.38;;;9.09;80.62
64200;BME280;50516;52.272;5.136;2024-03-02T08:53:04;100039.38;;;9.23;80.62
64200;BME280;50516;52.272;5.136;2024-03-02T08:55:29;100034.09;;;9.37;80.67
64200;BME280;50516;52.272;5.136;2024-03-02T08:57:55;100036.88;;;9.32;80.79
64200;BME280;50516;52.272;5.136;2024-03-02T09:00:20;100035.50;;;9.29;79.77
64200;BME280;50516;52.272;5.136;2024-03-02T09:02:46;100040.44;;;9.32;79.02
64200;BME280;50516;52.272;5.136;2024-03-02T09:05:12;100043.31;;;9.52;78.45
64200;BME280;50516;52.272;5.136;2024-03-02T09:07:37;100043.59;;;9.50;78.45
64200;BME280;50516;52.272;5.136;2024-03-02T09:10:04;100049.34;;;9.54;78.71
64200;BME280;50516;52.272;5.136;2024-03-02T09:12:30;100044.84;;;9.68;77.47
64200;BME280;50516;52.272;5.136;2024-03-02T09:14:55;100040.50;;;9.62;77.87
64200;BME280;50516;52.272;5.136;2024-03-02T09:17:20;100057.91;;;9.42;78.52
64200;BME280;50516;52.272;5.136;2024-03-02T09:19:46;100060.81;;;9.61;78.46
64200;BME280;50516;52.272;5.136;2024-03-02T09:22:12;100063.22;;;9.62;78.05
64200;BME280;50516;52.272;5.136;2024-03-02T09:24:38;100063.19;;;9.73;78.24
64200;BME280;50516;52.272;5.136;2024-03-02T09:27:03;100076.63;;;10.03;77.15
64200;BME280;50516;52.272;5.136;2024-03-02T09:29:29;100070.13;;;9.94;76.39
64200;BME280;50516;52.272;5.136;2024-03-02T09:31:55;100081.03;;;9.99;77.08
64200;BME280;50516;52.272;5.136;2024-03-02T09:34:20;100075.00;;;9.68;76.73
64200;BME280;50516;52.272;5.136;2024-03-02T09:36:46;100064.78;;;9.74;77.24
64200;BME280;50516;52.272;5.136;2024-03-02T09:39:11;100069.00;;;9.66;77.46
64200;BME280;50516;52.272;5.136;2024-03-02T09:41:37;100071.50;;;9.57;77.92
64200;BME280;50516;52.272;5.136;2024-03-02T09:44:04;100062.50;;;9.86;75.58
64200;BME280;50516;52.272;5.136;2024-03-02T09:46:30;100073.28;;;10.12;76.13
64200;BME280;50516;52.272;5.136;2024-03-02T09:48:55;100078.22;;;10.10;75.43
64200;BME280;50516;52.272;5.136;2024-03-02T09:51:20;100068.34;;;10.09;74.84
64200;BME280;50516;52.272;5.136;2024-03-02T09:53:47;100067.56;;;10.08;73.88
64200;BME280;50516;52.272;5.136;2024-03-02T09:56:12;100064.69;;;10.18;73.42
64200;BME280;50516;52.272;5.136;2024-03-02T09:58:41;100069.56;;;9.97;74.40
64200;BME280;50516;52.272;5.136;2024-03-02T10:01:06;100064.59;;;9.99;74.54
64200;BME280;50516;52.272;5.136;2024-03-02T10:03:33;100069.78;;;10.30;73.78
64200;BME280;50516;52.272;5.136;2024-03-02T10:06:22;100071.91;;;10.09;73.93
64200;BME280;50516;52.272;5.136;2024-03-02T10:08:48;100071.78;;;9.95;74.39
64200;BME280;50516;52.272;5.136;2024-03-02T10:11:34;100061.28;;;10.02;74.12
64200;BME280;50516;52.272;5.136;2024-03-02T10:14:11;100068.31;;;10.14;73.43
64200;BME280;50516;52.272;5.136;2024-03-02T10:16:38;100061.56;;;10.35;72.50
64200;BME280;50516;52.272;5.136;2024-03-02T10:19:23;100066.34;;;10.49;72.04
64200;BME280;50516;52.272;5.136;2024-03-02T10:21:53;100064.44;;;10.73;70.83
64200;BME280;50516;52.272;5.136;2024-03-02T10:24:19;100060.66;;;10.69;68.74
64200;BME280;50516;52.272;5.136;2024-03-02T10:26:45;100065.28;;;10.74;68.21
64200;BME280;50516;52.272;5.136;2024-03-02T10:29:11;100068.59;;;10.71;68.80
64200;BME280;50516;52.272;5.136;2024-03-02T10:31:41;100069.91;;;10.73;68.70
64200;BME280;50516;52.272;5.136;2024-03-02T10:34:09;100057.22;;;11.02;68.44
64200;BME280;50516;52.272;5.136;2024-03-02T10:36:34;100063.75;;;10.87;68.55
64200;BME280;50516;52.272;5.136;2024-03-02T10:39:04;100065.38;;;10.88;67.90
64200;BME280;50516;52.272;5.136;2024-03-02T10:41:37;100066.41;;;10.92;68.75
64200;BME280;50516;52.272;5.136;2024-03-02T10:44:05;100060.88;;;10.97;67.57
64200;BME280;50516;52.272;5.136;2024-03-02T10:46:33;100049.53;;;11.23;67.18
64200;BME280;50516;52.272;5.136;2024-03-02T10:49:03;100047.97;;;11.36;66.67
64200;BME280;50516;52.272;5.136;2024-03-02T10:51:30;100050.56;;;11.08;66.03
64200;BME280;50516;52.272;5.136;2024-03-02T10:54:02;100049.88;;;10.97;65.78
64200;BME280;50516;52.272;5.136;2024-03-02T10:56:47;100044.66;;;10.95;66.93
64200;BME280;50516;52.272;5.136;2024-03-02T10:59:23;100036.50;;;10.90;66.59
64200;BME280;50516;52.272;5.136;2024-03-02T11:01:50;100036.72;;;10.94;66.94
64200;BME280;50516;52.272;5.136;2024-03-02T11:04:17;100030.34;;;10.99;66.93
64200;BME280;50516;52.272;5.136;2024-03-02T11:06:48;100036.09;;;11.21;64.81
64200;BME280;50516;52.272;5.136;2024-03-02T11:09:16;100030.94;;;10.95;66.92
64200;BME280;50516;52.272;5.136;2024-03-02T11:11:43;100030.72;;;10.92;66.59
64200;BME280;50516;52.272;5.136;2024-03-02T11:14:14;100034.38;;;11.06;65.74
64200;BME280;50516;52.272;5.136;2024-03-02T11:16:42;100044.03;;;11.23;65.13
64200;BME280;50516;52.272;5.136;2024-03-02T11:19:11;100047.22;;;11.30;65.05
64200;BME280;50516;52.272;5.136;2024-03-02T11:21:37;100045.06;;;11.46;65.15
64200;BME280;50516;52.272;5.136;2024-03-02T11:26:46;100032.41;;;11.64;62.95
64200;BME280;50516;52.272;5.136;2024-03-02T11:32:13;100040.69;;;11.26;63.30
64200;BME280;50516;52.272;5.136;2024-03-02T11:34:41;100028.44;;;11.37;63.03
64200;BME280;50516;52.272;5.136;2024-03-02T11:37:10;100033.78;;;11.47;62.75
64200;BME280;50516;52.272;5.136;2024-03-02T11:39:37;100031.53;;;11.49;62.98
64200;BME280;50516;52.272;5.136;2024-03-02T11:42:05;100024.56;;;11.57;61.65
64200;BME280;50516;52.272;5.136;2024-03-02T11:44:33;100024.50;;;11.43;62.57
64200;BME280;50516;52.272;5.136;2024-03-02T11:46:59;100030.66;;;11.35;63.67
64200;BME280;50516;52.272;5.136;2024-03-02T11:49:41;100036.66;;;11.56;62.30
64200;BME280;50516;52.272;5.136;2024-03-02T11:52:09;100021.03;;;11.70;63.20
64200;BME280;50516;52.272;5.136;2024-03-02T11:54:40;100033.81;;;11.80;63.26
64200;BME280;50516;52.272;5.136;2024-03-02T11:57:06;100030.25;;;11.80;63.15
64200;BME280;50516;52.272;5.136;2024-03-02T11:59:32;100029.56;;;11.88;63.37
64200;BME280;50516;52.272;5.136;2024-03-02T12:01:58;100031.94;;;11.95;61.79
64200;BME280;50516;52.272;5.136;2024-03-02T12:04:25;100024.75;;;11.80;60.96
64200;BME280;50516;52.272;5.136;2024-03-02T12:07:00;100023.63;;;11.81;59.05
64200;BME280;50516;52.272;5.136;2024-03-02T12:09:29;100013.06;;;11.88;60.47
64200;BME280;50516;52.272;5.136;2024-03-02T12:12:04;100014.69;;;12.08;60.57
64200;BME280;50516;52.272;5.136;2024-03-02T12:14:30;100005.53;;;12.27;60.87
64200;BME280;50516;52.272;5.136;2024-03-02T12:16:56;100000.78;;;11.80;61.90
64200;BME280;50516;52.272;5.136;2024-03-02T12:19:24;99998.13;;;11.42;62.15
64200;BME280;50516;52.272;5.136;2024-03-02T12:21:49;99998.34;;;11.46;62.05
64200;BME280;50516;52.272;5.136;2024-03-02T12:24:15;99985.41;;;11.46;62.73
64200;BME280;50516;52.272;5.136;2024-03-02T12:26:40;99984.88;;;11.63;61.54
64200;BME280;50516;52.272;5.136;2024-03-02T12:29:06;99986.94;;;11.72;61.68
64200;BME280;50516;52.272;5.136;2024-03-02T12:31:32;99974.44;;;11.79;60.97
64200;BME280;50516;52.272;5.136;2024-03-02T12:33:58;99973.91;;;12.10;60.45
64200;BME280;50516;52.272;5.136;2024-03-02T12:36:23;99969.22;;;12.24;59.30
64200;BME280;50516;52.272;5.136;2024-03-02T12:38:52;99968.41;;;12.38;59.32
64200;BME280;50516;52.272;5.136;2024-03-02T12:41:18;99975.53;;;12.67;59.42
64200;BME280;50516;52.272;5.136;2024-03-02T12:43:43;99967.75;;;13.19;57.42
64200;BME280;50516;52.272;5.136;2024-03-02T12:46:08;99959.44;;;13.69;55.34
64200;BME280;50516;52.272;5.136;2024-03-02T12:48:34;99951.50;;;13.31;55.17
64200;BME280;50516;52.272;5.136;2024-03-02T12:51:00;99958.72;;;13.05;56.74
64200;BME280;50516;52.272;5.136;2024-03-02T12:53:26;99954.84;;;13.06;55.94
64200;BME280;50516;52.272;5.136;2024-03-02T12:55:51;99961.84;;;12.89;55.44
64200;BME280;50516;52.272;5.136;2024-03-02T12:58:22;99955.72;;;12.78;54.95
64200;BME280;50516;52.272;5.136;2024-03-02T13:00:47;99960.06;;;12.93;54.34
64200;BME280;50516;52.272;5.136;2024-03-02T13:03:13;99957.00;;;12.95;53.89
64200;BME280;50516;52.272;5.136;2024-03-02T13:05:39;99955.28;;;12.99;53.87
64200;BME280;50516;52.272;5.136;2024-03-02T13:08:06;99956.34;;;12.75;53.81
64200;BME280;50516;52.272;5.136;2024-03-02T13:10:32;99951.06;;;12.79;52.92